sensor_id;sensor_type;location;lat;lon;timestamp;P1;durP1;ratioP1;P2;durP2;ratioP2
16667;SDS011;8447;52.630;4.734;2024-03-22T00:01:43;21.37;;;11.43;;
16667;SDS011;8447;52.630;4.734;2024-03-22T00:04:10;25.13;;;10.50;;
16667;SDS011;8447;52.630;4.734;2024-03-22T00:06:36;20.50;;;10.47;;
16667;SDS011;8447;52.630;4.734;2024-03-22T00:09:02;22.33;;;10.17;;
16667;SDS011;8447;52.630;4.734;2024-03-22T00:11:28;17.50;;;9.97;;
16667;SDS011;8447;52.630;4.734;2024-03-22T00:13:53;20.60;;;10.03;;
16667;SDS011;8447;52.630;4.734;2024-03-22T00:16:20;18.93;;;10.87;;
16667;SDS011;8447;52.630;4.734;2024-03-22T00:18:47;20.13;;;12.00;;
16667;SDS011;8447;52.630;4.734;2024-03-22T00:21:14;17.57;;;10.57;;
16667;SDS011;8447;52.630;4.734;2024-03-22T00:23:40;20.23;;;10.07;;
16667;SDS011;8447;52.630;4.734;2024-03-22T00:26:06;20.90;;;10.97;;
16667;SDS011;8447;52.630;4.734;2024-03-22T00:28:32;25.97;;;11.57;;
16667;SDS011;8447;52.630;4.734;2024-03-22T00:30:58;8.33;;;5.63;;
16667;SDS011;8447;52.630;4.734;2024-03-22T00:33:23;19.67;;;10.87;;
16667;SDS011;8447;52.630;4.734;2024-03-22T00:35:50;16.03;;;9.73;;
16667;SDS011;8447;52.630;4.734;2024-03-22T00:38:18;19.50;;;10.50;;
16667;SDS011;8447;52.630;4.734;2024-03-22T00:40:44;21.03;;;9.40;;
16667;SDS011;8447;52.630;4.734;2024-03-22T00:43:10;23.13;;;11.40;;
16667;SDS011;8447;52.630;4.734;2024-03-22T00:45:36;8.40;;;3.63;;
16667;SDS011;8447;52.630;4.734;2024-03-22T00:48:01;20.13;;;10.03;;
16667;SDS011;8447;52.630;4.734;2024-03-22T00:50:28;20.87;;;12.33;;
16667;SDS011;8447;52.630;4.734;2024-03-22T00:52:53;21.03;;;11.47;;
16667;SDS011;8447;52.630;4.734;2024-03-22T00:55:22;18.80;;;9.30;;
16667;SDS011;8447;52.630;4.734;2024-03-22T00:57:48;11.27;;;4.40;;
16667;SDS011;8447;52.630;4.734;2024-03-22T01:00:14;25.27;;;11.63;;
16667;SDS011;8447;52.630;4.734;2024-03-22T01:02:40;22.63;;;10.50;;
16667;SDS011;8447;52.630;4.734;2024-03-22T01:05:07;18.13;;;10.13;;
16667;SDS011;8447;52.630;4.734;2024-03-22T01:07:32;17.03;;;8.97;;
16667;SDS011;8447;52.630;4.734;2024-03-22T01:09:59;22.37;;;8.50;;
16667;SDS011;8447;52.630;4.734;2024-03-22T01:12:25;15.43;;;7.00;;
16667;SDS011;8447;52.630;4.734;2024-03-22T01:14:52;19.03;;;7.67;;
16667;SDS011;8447;52.630;4.734;2024-03-22T01:17:17;19.83;;;9.37;;
16667;SDS011;8447;52.630;4.734;2024-03-22T01:19:44;19.97;;;10.77;;
16667;SDS011;8447;52.630;4.734;2024-03-22T01:22:09;17.83;;;7.43;;
16667;SDS011;8447;52.630;4.734;2024-03-22T01:24:35;21.83;;;9.80;;
16667;SDS011;8447;52.630;4.734;2024-03-22T01:27:01;21.77;;;10.23;;
16667;SDS011;8447;52.630;4.734;2024-03-22T01:29:28;17.63;;;8.57;;
16667;SDS011;8447;52.630;4.734;2024-03-22T01:31:57;18.97;;;8.53;;
16667;SDS011;8447;52.630;4.734;2024-03-22T01:34:24;17.87;;;8.57;;
16667;SDS011;8447;52.630;4.734;2024-03-22T01:36:49;17.20;;;7.50;;
16667;SDS011;8447;52.630;4.734;2024-03-22T01:39:16;19.83;;;6.87;;
16667;SDS011;8447;52.630;4.734;2024-03-22T01:41:42;15.17;;;8.23;;
16667;SDS011;8447;52.630;4.734;2024-03-22T01:44:08;17.47;;;7.30;;
16667;SDS011;8447;52.630;4.734;2024-03-22T01:46:35;18.70;;;8.53;;
16667;SDS011;8447;52.630;4.734;2024-03-22T01:49:01;17.40;;;8.60;;
16667;SDS011;8447;52.630;4.734;2024-03-22T01:51:27;23.27;;;8.53;;
16667;SDS011;8447;52.630;4.734;2024-03-22T01:53:55;19.23;;;8.57;;
16667;SDS011;8447;52.630;4.734;2024-03-22T01:56:21;21.47;;;9.90;;
16667;SDS011;8447;52.630;4.734;2024-03-22T01:58:48;14.63;;;7.00;;
16667;SDS011;8447;52.630;4.734;2024-03-22T02:01:13;25.80;;;8.13;;
16667;SDS011;8447;52.630;4.734;2024-03-22T02:03:41;11.33;;;4.27;;
16667;SDS011;8447;52.630;4.734;2024-03-22T02:06:06;11.33;;;5.93;;
16667;SDS011;8447;52.630;4.734;2024-03-22T02:08:33;13.90;;;7.30;;
16667;SDS011;8447;52.630;4.734;2024-03-22T02:10:59;16.33;;;6.50;;
16667;SDS011;8447;52.630;4.734;2024-03-22T02:13:25;15.13;;;5.57;;
16667;SDS011;8447;52.630;4.734;2024-03-22T02:15:50;16.63;;;6.23;;
16667;SDS011;8447;52.630;4.734;2024-03-22T02:18:17;13.17;;;5.67;;
16667;SDS011;8447;52.630;4.734;2024-03-22T02:20:43;7.97;;;4.27;;
16667;SDS011;8447;52.630;4.734;2024-03-22T02:23:10;10.47;;;3.53;;
16667;SDS011;8447;52.630;4.734;2024-03-22T02:25:37;10.60;;;4.17;;
16667;SDS011;8447;52.630;4.734;2024-03-22T02:28:03;10.23;;;4.97;;
16667;SDS011;8447;52.630;4.734;2024-03-22T02:30:29;11.90;;;4.80;;
16667;SDS011;8447;52.630;4.734;2024-03-22T02:32:55;13.70;;;4.73;;
16667;SDS011;8447;52.630;4.734;2024-03-22T02:35:20;3.57;;;2.23;;
16667;SDS011;8447;52.630;4.734;2024-03-22T02:37:47;11.93;;;4.70;;
16667;SDS011;8447;52.630;4.734;2024-03-22T02:40:12;11.67;;;4.20;;
16667;SDS011;8447;52.630;4.734;2024-03-22T02:42:40;14.57;;;4.90;;
16667;SDS011;8447;52.630;4.734;2024-03-22T02:45:05;9.90;;;3.87;;
16667;SDS011;8447;52.630;4.734;2024-03-22T02:47:32;13.70;;;4.00;;
16667;SDS011;8447;52.630;4.734;2024-03-22T02:49:57;14.40;;;3.93;;
16667;SDS011;8447;52.630;4.734;2024-03-22T02:52:23;8.67;;;3.77;;
16667;SDS011;8447;52.630;4.734;2024-03-22T02:54:49;12.80;;;4.90;;
16667;SDS011;8447;52.630;4.734;2024-03-22T02:57:15;9.97;;;3.93;;
16667;SDS011;8447;52.630;4.734;2024-03-22T02:59:42;13.50;;;4.87;;
16667;SDS011;8447;52.630;4.734;2024-03-22T03:02:08;10.03;;;3.03;;
16667;SDS011;8447;52.630;4.734;2024-03-22T03:04:34;13.83;;;4.03;;
16667;SDS011;8447;52.630;4.734;2024-03-22T03:07:00;8.20;;;4.03;;
16667;SDS011;8447;52.630;4.734;2024-03-22T03:09:25;9.50;;;4.53;;
16667;SDS011;8447;52.630;4.734;2024-03-22T03:11:52;9.80;;;3.93;;
16667;SDS011;8447;52.630;4.734;2024-03-22T03:14:17;9.60;;;4.37;;
16667;SDS011;8447;52.630;4.734;2024-03-22T03:16:45;15.07;;;4.90;;
16667;SDS011;8447;52.630;4.734;2024-03-22T03:19:10;11.73;;;3.87;;
16667;SDS011;8447;52.630;4.734;2024-03-22T03:21:36;8.67;;;3.37;;
16667;SDS011;8447;52.630;4.734;2024-03-22T03:24:02;15.73;;;3.93;;
16667;SDS011;8447;52.630;4.734;2024-03-22T03:26:28;10.33;;;3.70;;
16667;SDS011;8447;52.630;4.734;2024-03-22T03:28:54;13.83;;;3.50;;
16667;SDS011;8447;52.630;4.734;2024-03-22T03:31:21;14.47;;;3.47;;
16667;SDS011;8447;52.630;4.734;2024-03-22T03:33:47;8.87;;;3.13;;
16667;SDS011;8447;52.630;4.734;2024-03-22T03:36:14;10.93;;;3.23;;
16667;SDS011;8447;52.630;4.734;2024-03-22T03:38:39;15.00;;;2.93;;
16667;SDS011;8447;52.630;4.734;2024-03-22T03:41:06;12.33;;;4.00;;
16667;SDS011;8447;52.630;4.734;2024-03-22T03:43:33;14.13;;;3.37;;
16667;SDS011;8447;52.630;4.734;2024-03-22T03:45:58;11.43;;;2.67;;
16667;SDS011;8447;52.630;4.734;2024-03-22T03:48:25;11.33;;;3.50;;
16667;SDS011;8447;52.630;4.734;2024-03-22T03:50:52;2.07;;;0.73;;
16667;SDS011;8447;52.630;4.734;2024-03-22T03:53:19;12.97;;;3.33;;
16667;SDS011;8447;52.630;4.734;2024-03-22T03:55:45;14.63;;;3.93;;
16667;SDS011;8447;52.630;4.734;2024-03-22T03:58:12;13.07;;;3.53;;
16667;SDS011;8447;52.630;4.734;2024-03-22T04:00:37;12.00;;;2.50;;
16667;SDS011;8447;52.630;4.734;2024-03-22T04:03:03;13.57;;;3.20;;
16667;SDS011;8447;52.630;4.734;2024-03-22T04:05:29;9.07;;;2.97;;
16667;SDS011;8447;52.630;4.734;2024-03-22T04:07:56;13.20;;;3.27;;
16667;SDS011;8447;52.630;4.734;2024-03-22T04:10:22;9.53;;;2.80;;
16667;SDS011;8447;52.630;4.734;2024-03-22T04:12:48;13.60;;;3.07;;
16667;SDS011;8447;52.630;4.734;2024-03-22T04:15:14;11.27;;;2.90;;
16667;SDS011;8447;52.630;4.734;2024-03-22T04:17:40;17.10;;;3.63;;
16667;SDS011;8447;52.630;4.734;2024-03-22T04:20:06;18.43;;;4.43;;
16667;SDS011;8447;52.630;4.734;2024-03-22T04:22:33;12.90;;;3.90;;
16667;SDS011;8447;52.630;4.734;2024-03-22T04:25:01;8.77;;;3.30;;
16667;SDS011;8447;52.630;4.734;2024-03-22T04:27:27;12.93;;;3.70;;
16667;SDS011;8447;52.630;4.734;2024-03-22T04:29:53;4.53;;;1.97;;
16667;SDS011;8447;52.630;4.734;2024-03-22T04:32:19;13.07;;;3.93;;
16667;SDS011;8447;52.630;4.734;2024-03-22T04:34:45;6.67;;;2.27;;
16667;SDS011;8447;52.630;4.734;2024-03-22T04:37:11;11.47;;;3.77;;
16667;SDS011;8447;52.630;4.734;2024-03-22T04:39:37;15.33;;;4.10;;
16667;SDS011;8447;52.630;4.734;2024-03-22T04:42:05;10.83;;;3.80;;
16667;SDS011;8447;52.630;4.734;2024-03-22T04:44:32;11.80;;;2.97;;
16667;SDS011;8447;52.630;4.734;2024-03-22T04:46:58;13.27;;;4.07;;
16667;SDS011;8447;52.630;4.734;2024-03-22T04:49:24;11.23;;;3.40;;
16667;SDS011;8447;52.630;4.734;2024-03-22T04:51:50;8.13;;;3.43;;
16667;SDS011;8447;52.630;4.734;2024-03-22T04:54:16;13.57;;;3.70;;
16667;SDS011;8447;52.630;4.734;2024-03-22T04:56:41;13.57;;;3.80;;
16667;SDS011;8447;52.630;4.734;2024-03-22T04:59:09;6.17;;;2.70;;
16667;SDS011;8447;52.630;4.734;2024-03-22T05:01:35;9.27;;;1.97;;
16667;SDS011;8447;52.630;4.734;2024-03-22T05:04:01;12.70;;;3.67;;
16667;SDS011;8447;52.630;4.734;2024-03-22T05:06:26;14.83;;;3.97;;
16667;SDS011;8447;52.630;4.734;2024-03-22T05:08:53;7.67;;;2.77;;
16667;SDS011;8447;52.630;4.734;2024-03-22T05:11:18;16.47;;;4.20;;
16667;SDS011;8447;52.630;4.734;2024-03-22T05:13:44;13.90;;;4.93;;
16667;SDS011;8447;52.630;4.734;2024-03-22T05:16:13;7.97;;;3.40;;
16667;SDS011;8447;52.630;4.734;2024-03-22T05:18:39;9.23;;;3.60;;
16667;SDS011;8447;52.630;4.734;2024-03-22T05:21:05;4.97;;;2.87;;
16667;SDS011;8447;52.630;4.734;2024-03-22T05:23:32;8.23;;;2.10;;
16667;SDS011;8447;52.630;4.734;2024-03-22T05:25:57;8.07;;;2.27;;
16667;SDS011;8447;52.630;4.734;2024-03-22T05:28:24;11.83;;;3.20;;
16667;SDS011;8447;52.630;4.734;2024-03-22T05:30:50;15.07;;;3.67;;
16667;SDS011;8447;52.630;4.734;2024-03-22T05:33:17;9.63;;;3.70;;
16667;SDS011;8447;52.630;4.734;2024-03-22T05:35:43;10.37;;;4.17;;
16667;SDS011;8447;52.630;4.734;2024-03-22T05:38:09;12.67;;;3.83;;
16667;SDS011;8447;52.630;4.734;2024-03-22T05:40:35;5.10;;;2.60;;
16667;SDS011;8447;52.630;4.734;2024-03-22T05:43:03;17.17;;;4.83;;
16667;SDS011;8447;52.630;4.734;2024-03-22T05:45:29;8.93;;;4.37;;
16667;SDS011;8447;52.630;4.734;2024-03-22T05:47:55;13.97;;;5.03;;
16667;SDS011;8447;52.630;4.734;2024-03-22T05:50:22;14.33;;;4.70;;
16667;SDS011;8447;52.630;4.734;2024-03-22T05:52:48;15.47;;;5.77;;
16667;SDS011;8447;52.630;4.734;2024-03-22T05:55:14;6.20;;;2.43;;
16667;SDS011;8447;52.630;4.734;2024-03-22T05:57:40;4.43;;;1.73;;
16667;SDS011;8447;52.630;4.734;2024-03-22T06:00:06;12.27;;;5.10;;
16667;SDS011;8447;52.630;4.734;2024-03-22T06:02:33;8.93;;;3.87;;
16667;SDS011;8447;52.630;4.734;2024-03-22T06:04:58;12.80;;;4.50;;
16667;SDS011;8447;52.630;4.734;2024-03-22T06:07:26;17.00;;;3.93;;
16667;SDS011;8447;52.630;4.734;2024-03-22T06:09:52;9.67;;;4.57;;
16667;SDS011;8447;52.630;4.734;2024-03-22T06:12:18;12.63;;;4.03;;
16667;SDS011;8447;52.630;4.734;2024-03-22T06:14:44;14.40;;;4.97;;
16667;SDS011;8447;52.630;4.734;2024-03-22T06:17:11;19.77;;;5.40;;
16667;SDS011;8447;52.630;4.734;2024-03-22T06:19:37;15.70;;;4.70;;
16667;SDS011;8447;52.630;4.734;2024-03-22T06:22:04;9.03;;;3.23;;
16667;SDS011;8447;52.630;4.734;2024-03-22T06:24:31;13.93;;;4.20;;
16667;SDS011;8447;52.630;4.734;2024-03-22T06:26:58;13.03;;;3.13;;
16667;SDS011;8447;52.630;4.734;2024-03-22T06:29:23;8.83;;;3.50;;
16667;SDS011;8447;52.630;4.734;2024-03-22T06:31:49;8.60;;;3.53;;
16667;SDS011;8447;52.630;4.734;2024-03-22T06:34:15;11.93;;;3.83;;
16667;SDS011;8447;52.630;4.734;2024-03-22T06:36:41;6.17;;;3.40;;
16667;SDS011;8447;52.630;4.734;2024-03-22T06:39:08;9.93;;;2.83;;
16667;SDS011;8447;52.630;4.734;2024-03-22T06:41:36;11.13;;;4.80;;
16667;SDS011;8447;52.630;4.734;2024-03-22T06:44:02;7.93;;;3.70;;
16667;SDS011;8447;52.630;4.734;2024-03-22T06:46:28;13.30;;;4.67;;
16667;SDS011;8447;52.630;4.734;2024-03-22T06:48:54;11.40;;;4.10;;
16667;SDS011;8447;52.630;4.734;2024-03-22T06:51:21;12.90;;;4.10;;
16667;SDS011;8447;52.630;4.734;2024-03-22T06:53:46;10.03;;;4.30;;
16667;SDS011;8447;52.630;4.734;2024-03-22T06:56:13;12.13;;;3.70;;
16667;SDS011;8447;52.630;4.734;2024-03-22T06:58:39;8.67;;;4.13;;
16667;SDS011;8447;52.630;4.734;2024-03-22T07:01:06;10.73;;;3.63;;
16667;SDS011;8447;52.630;4.734;2024-03-22T07:03:31;11.67;;;4.73;;
16667;SDS011;8447;52.630;4.734;2024-03-22T07:05:58;7.10;;;2.77;;
16667;SDS011;8447;52.630;4.734;2024-03-22T07:08:23;9.03;;;2.80;;
16667;SDS011;8447;52.630;4.734;2024-03-22T07:10:50;10.70;;;3.93;;
16667;SDS011;8447;52.630;4.734;2024-03-22T07:13:16;11.87;;;3.60;;
16667;SDS011;8447;52.630;4.734;2024-03-22T07:15:45;6.53;;;2.30;;
16667;SDS011;8447;52.630;4.734;2024-03-22T07:18:10;12.70;;;3.63;;
16667;SDS011;8447;52.630;4.734;2024-03-22T07:20:37;7.93;;;1.87;;
16667;SDS011;8447;52.630;4.734;2024-03-22T07:23:02;13.80;;;4.27;;
16667;SDS011;8447;52.630;4.734;2024-03-22T07:25:29;12.23;;;4.13;;
16667;SDS011;8447;52.630;4.734;2024-03-22T07:27:54;7.63;;;2.97;;
16667;SDS011;8447;52.630;4.734;2024-03-22T07:30:21;2.60;;;1.03;;
16667;SDS011;8447;52.630;4.734;2024-03-22T07:32:48;12.70;;;3.80;;
16667;SDS011;8447;52.630;4.734;2024-03-22T07:35:14;9.23;;;3.60;;
16667;SDS011;8447;52.630;4.734;2024-03-22T07:37:40;14.97;;;4.17;;
16667;SDS011;8447;52.630;4.734;2024-03-22T07:40:06;9.93;;;3.60;;
16667;SDS011;8447;52.630;4.734;2024-03-22T07:42:32;10.00;;;4.07;;
16667;SDS011;8447;52.630;4.734;2024-03-22T07:44:58;7.83;;;3.10;;
16667;SDS011;8447;52.630;4.734;2024-03-22T07:47:23;11.23;;;3.43;;
16667;SDS011;8447;52.630;4.734;2024-03-22T07:49:51;14.53;;;4.50;;
16667;SDS011;8447;52.630;4.734;2024-03-22T07:52:17;12.47;;;4.13;;
16667;SDS011;8447;52.630;4.734;2024-03-22T07:54:43;10.30;;;4.33;;
16667;SDS011;8447;52.630;4.734;2024-03-22T07:57:08;13.70;;;4.73;;
16667;SDS011;8447;52.630;4.734;2024-03-22T07:59:35;13.10;;;3.70;;
16667;SDS011;8447;52.630;4.734;2024-03-22T08:02:01;12.70;;;4.43;;
16667;SDS011;8447;52.630;4.734;2024-03-22T08:04:28;5.63;;;1.87;;
16667;SDS011;8447;52.630;4.734;2024-03-22T08:06:55;9.23;;;3.77;;
16667;SDS011;8447;52.630;4.734;2024-03-22T08:09:21;11.70;;;4.13;;
16667;SDS011;8447;52.630;4.734;2024-03-22T08:11:47;11.70;;;4.80;;
16667;SDS011;8447;52.630;4.734;2024-03-22T08:14:13;10.33;;;4.10;;
16667;SDS011;8447;52.630;4.734;2024-03-22T08:16:39;9.93;;;4.20;;
16667;SDS011;8447;52.630;4.734;2024-03-22T08:19:05;15.63;;;4.73;;
16667;SDS011;8447;52.630;4.734;2024-03-22T08:21:31;12.27;;;4.57;;
16667;SDS011;8447;52.630;4.734;2024-03-22T08:23:58;18.30;;;5.70;;
16667;SDS011;8447;52.630;4.734;2024-03-22T08:26:24;13.47;;;4.37;;
16667;SDS011;8447;52.630;4.734;2024-03-22T08:28:50;11.13;;;3.67;;
16667;SDS011;8447;52.630;4.734;2024-03-22T08:31:15;14.07;;;4.90;;
16667;SDS011;8447;52.630;4.734;2024-03-22T08:33:43;10.13;;;4.20;;
16667;SDS011;8447;52.630;4.734;2024-03-22T08:36:08;7.73;;;3.47;;
16667;SDS011;8447;52.630;4.734;2024-03-22T08:38:35;10.97;;;4.40;;
16667;SDS011;8447;52.630;4.734;2024-03-22T08:41:02;9.10;;;4.30;;
16667;SDS011;8447;52.630;4.734;2024-03-22T08:43:28;9.63;;;4.57;;
16667;SDS011;8447;52.630;4.734;2024-03-22T08:45:54;12.87;;;4.73;;
16667;SDS011;8447;52.630;4.734;2024-03-22T08:48:20;11.57;;;4.50;;
16667;SDS011;8447;52.630;4.734;2024-03-22T08:50:46;12.13;;;4.17;;
16667;SDS011;8447;52.630;4.734;2024-03-22T08:53:12;11.07;;;4.70;;
16667;SDS011;8447;52.630;4.734;2024-03-22T08:55:37;11.37;;;4.47;;
16667;SDS011;8447;52.630;4.734;2024-03-22T08:58:05;6.37;;;3.80;;
16667;SDS011;8447;52.630;4.734;2024-03-22T09:00:30;5.30;;;2.77;;
16667;SDS011;8447;52.630;4.734;2024-03-22T09:02:57;7.33;;;2.60;;
16667;SDS011;8447;52.630;4.734;2024-03-22T09:05:22;12.17;;;4.73;;
16667;SDS011;8447;52.630;4.734;2024-03-22T09:07:48;6.60;;;3.77;;
16667;SDS011;8447;52.630;4.734;2024-03-22T09:10:15;10.53;;;4.13;;
16667;SDS011;8447;52.630;4.734;2024-03-22T09:12:41;9.73;;;4.53;;
16667;SDS011;8447;52.630;4.734;2024-03-22T09:15:09;11.63;;;5.27;;
16667;SDS011;8447;52.630;4.734;2024-03-22T09:17:35;8.63;;;4.73;;
16667;SDS011;8447;52.630;4.734;2024-03-22T09:20:01;9.00;;;4.80;;
16667;SDS011;8447;52.630;4.734;2024-03-22T09:22:29;14.63;;;5.57;;
16667;SDS011;8447;52.630;4.734;2024-03-22T09:24:54;9.10;;;4.17;;
16667;SDS011;8447;52.630;4.734;2024-03-22T09:27:20;11.37;;;4.73;;
16667;SDS011;8447;52.630;4.734;2024-03-22T09:29:48;12.57;;;6.77;;
16667;SDS011;8447;52.630;4.734;2024-03-22T09:32:16;12.17;;;5.07;;
16667;SDS011;8447;52.630;4.734;2024-03-22T09:34:42;7.30;;;4.20;;
16667;SDS011;8447;52.630;4.734;2024-03-22T09:37:08;11.17;;;5.63;;
16667;SDS011;8447;52.630;4.734;2024-03-22T09:39:33;9.63;;;5.43;;
16667;SDS011;8447;52.630;4.734;2024-03-22T09:42:00;8.00;;;4.90;;
16667;SDS011;8447;52.630;4.734;2024-03-22T09:44:26;8.37;;;4.80;;
16667;SDS011;8447;52.630;4.734;2024-03-22T09:46:53;10.90;;;5.77;;
16667;SDS011;8447;52.630;4.734;2024-03-22T09:49:20;8.37;;;4.93;;
16667;SDS011;8447;52.630;4.734;2024-03-22T09:51:48;10.53;;;5.97;;
16667;SDS011;8447;52.630;4.734;2024-03-22T09:54:14;7.93;;;3.43;;
16667;SDS011;8447;52.630;4.734;2024-03-22T09:56:40;10.77;;;5.10;;
16667;SDS011;8447;52.630;4.734;2024-03-22T09:59:07;8.73;;;4.57;;
16667;SDS011;8447;52.630;4.734;2024-03-22T10:01:33;8.73;;;5.27;;
16667;SDS011;8447;52.630;4.734;2024-03-22T10:03:59;8.77;;;5.87;;
16667;SDS011;8447;52.630;4.734;2024-03-22T10:06:27;9.37;;;5.13;;
16667;SDS011;8447;52.630;4.734;2024-03-22T10:08:53;9.73;;;4.97;;
16667;SDS011;8447;52.630;4.734;2024-03-22T10:11:22;6.97;;;4.07;;
16667;SDS011;8447;52.630;4.734;2024-03-22T10:13:48;11.77;;;6.37;;
16667;SDS011;8447;52.630;4.734;2024-03-22T10:16:16;8.80;;;4.87;;
16667;SDS011;8447;52.630;4.734;2024-03-22T10:18:41;14.70;;;5.83;;
16667;SDS011;8447;52.630;4.734;2024-03-22T10:21:08;14.77;;;6.10;;
16667;SDS011;8447;52.630;4.734;2024-03-22T10:23:35;11.87;;;4.90;;
16667;SDS011;8447;52.630;4.734;2024-03-22T10:26:01;13.37;;;7.00;;
16667;SDS011;8447;52.630;4.734;2024-03-22T10:28:27;9.80;;;5.50;;
16667;SDS011;8447;52.630;4.734;2024-03-22T10:30:53;9.93;;;5.50;;
16667;SDS011;8447;52.630;4.734;2024-03-22T10:33:19;10.83;;;5.77;;
16667;SDS011;8447;52.630;4.734;2024-03-22T10:35:47;9.03;;;5.10;;
16667;SDS011;8447;52.630;4.734;2024-03-22T10:38:14;14.17;;;6.20;;
16667;SDS011;8447;52.630;4.734;2024-03-22T10:40:44;11.03;;;4.63;;
16667;SDS011;8447;52.630;4.734;2024-03-22T10:43:09;4.83;;;2.43;;
16667;SDS011;8447;52.630;4.734;2024-03-22T10:45:36;8.83;;;4.97;;
16667;SDS011;8447;52.630;4.734;2024-03-22T10:48:05;8.93;;;3.97;;
16667;SDS011;8447;52.630;4.734;2024-03-22T10:50:34;6.83;;;3.27;;
16667;SDS011;8447;52.630;4.734;2024-03-22T10:53:01;13.00;;;4.60;;
16667;SDS011;8447;52.630;4.734;2024-03-22T10:55:32;10.70;;;4.57;;
16667;SDS011;8447;52.630;4.734;2024-03-22T10:57:59;2.07;;;1.30;;
16667;SDS011;8447;52.630;4.734;2024-03-22T11:00:29;9.10;;;4.23;;
16667;SDS011;8447;52.630;4.734;2024-03-22T11:02:55;13.80;;;4.87;;
16667;SDS011;8447;52.630;4.734;2024-03-22T11:05:21;8.40;;;4.57;;
16667;SDS011;8447;52.630;4.734;2024-03-22T11:07:46;14.63;;;6.00;;
16667;SDS011;8447;52.630;4.734;2024-03-22T11:10:13;9.10;;;3.10;;
16667;SDS011;8447;52.630;4.734;2024-03-22T11:12:39;11.37;;;4.87;;
16667;SDS011;8447;52.630;4.734;2024-03-22T11:15:07;9.40;;;3.97;;
16667;SDS011;8447;52.630;4.734;2024-03-22T11:17:34;8.90;;;4.10;;
16667;SDS011;8447;52.630;4.734;2024-03-22T11:20:00;12.10;;;5.55;;
16667;SDS011;8447;52.630;4.734;2024-03-22T11:22:26;15.27;;;5.20;;
16667;SDS011;8447;52.630;4.734;2024-03-22T11:24:52;15.27;;;5.47;;
16667;SDS011;8447;52.630;4.734;2024-03-22T11:27:17;7.83;;;4.67;;
16667;SDS011;8447;52.630;4.734;2024-03-22T11:29:44;12.90;;;5.28;;
16667;SDS011;8447;52.630;4.734;2024-03-22T11:32:12;9.77;;;5.10;;
16667;SDS011;8447;52.630;4.734;2024-03-22T11:34:39;9.83;;;3.97;;
16667;SDS011;8447;52.630;4.734;2024-03-22T11:37:06;6.03;;;3.80;;
16667;SDS011;8447;52.630;4.734;2024-03-22T11:39:35;8.63;;;2.83;;
16667;SDS011;8447;52.630;4.734;2024-03-22T11:42:01;10.97;;;4.30;;
16667;SDS011;8447;52.630;4.734;2024-03-22T11:44:28;6.07;;;2.90;;
16667;SDS011;8447;52.630;4.734;2024-03-22T11:46:53;10.40;;;2.93;;
16667;SDS011;8447;52.630;4.734;2024-03-22T11:49:21;5.87;;;2.47;;
16667;SDS011;8447;52.630;4.734;2024-03-22T11:51:46;7.17;;;2.33;;
16667;SDS011;8447;52.630;4.734;2024-03-22T11:54:13;6.93;;;2.87;;
16667;SDS011;8447;52.630;4.734;2024-03-22T11:56:39;8.77;;;2.30;;
16667;SDS011;8447;52.630;4.734;2024-03-22T11:59:06;5.03;;;2.33;;
16667;SDS011;8447;52.630;4.734;2024-03-22T12:01:32;6.77;;;2.17;;
16667;SDS011;8447;52.630;4.734;2024-03-22T12:03:58;7.97;;;3.13;;
16667;SDS011;8447;52.630;4.734;2024-03-22T12:06:25;6.87;;;2.37;;
16667;SDS011;8447;52.630;4.734;2024-03-22T12:08:54;9.55;;;3.05;;
16667;SDS011;8447;52.630;4.734;2024-03-22T12:11:19;8.50;;;2.47;;
16667;SDS011;8447;52.630;4.734;2024-03-22T12:13:46;8.60;;;3.20;;
16667;SDS011;8447;52.630;4.734;2024-03-22T12:16:11;8.63;;;2.63;;
16667;SDS011;8447;52.630;4.734;2024-03-22T12:18:37;10.87;;;3.27;;
16667;SDS011;8447;52.630;4.734;2024-03-22T12:21:03;9.27;;;3.10;;
16667;SDS011;8447;52.630;4.734;2024-03-22T12:23:31;9.63;;;3.53;;
16667;SDS011;8447;52.630;4.734;2024-03-22T12:25:56;5.30;;;2.70;;
16667;SDS011;8447;52.630;4.734;2024-03-22T12:28:22;12.40;;;2.33;;
16667;SDS011;8447;52.630;4.734;2024-03-22T12:30:48;9.27;;;3.03;;
16667;SDS011;8447;52.630;4.734;2024-03-22T12:33:14;6.47;;;2.20;;
16667;SDS011;8447;52.630;4.734;2024-03-22T12:35:40;7.17;;;2.83;;
16667;SDS011;8447;52.630;4.734;2024-03-22T12:38:06;12.33;;;3.97;;
16667;SDS011;8447;52.630;4.734;2024-03-22T12:40:33;7.27;;;2.30;;
16667;SDS011;8447;52.630;4.734;2024-03-22T12:43:00;9.57;;;2.47;;
16667;SDS011;8447;52.630;4.734;2024-03-22T12:45:25;5.30;;;2.00;;
16667;SDS011;8447;52.630;4.734;2024-03-22T12:47:52;2.27;;;1.20;;
16667;SDS011;8447;52.630;4.734;2024-03-22T12:50:17;2.93;;;1.47;;
16667;SDS011;8447;52.630;4.734;2024-03-22T12:52:43;7.27;;;1.87;;
16667;SDS011;8447;52.630;4.734;2024-03-22T12:55:09;6.67;;;1.27;;
16667;SDS011;8447;52.630;4.734;2024-03-22T12:57:37;5.70;;;1.50;;
16667;SDS011;8447;52.630;4.734;2024-03-22T13:00:03;5.30;;;1.50;;
16667;SDS011;8447;52.630;4.734;2024-03-22T13:02:31;10.63;;;1.83;;
16667;SDS011;8447;52.630;4.734;2024-03-22T13:04:57;3.53;;;1.30;;
16667;SDS011;8447;52.630;4.734;2024-03-22T13:07:24;12.47;;;2.17;;
16667;SDS011;8447;52.630;4.734;2024-03-22T13:09:50;7.63;;;1.60;;
16667;SDS011;8447;52.630;4.734;2024-03-22T13:12:16;14.27;;;2.33;;
16667;SDS011;8447;52.630;4.734;2024-03-22T13:14:43;5.10;;;1.70;;
16667;SDS011;8447;52.630;4.734;2024-03-22T13:17:10;4.30;;;1.10;;
16667;SDS011;8447;52.630;4.734;2024-03-22T13:19:35;6.87;;;1.13;;
16667;SDS011;8447;52.630;4.734;2024-03-22T13:22:01;5.50;;;1.93;;
16667;SDS011;8447;52.630;4.734;2024-03-22T13:24:27;5.57;;;1.50;;
16667;SDS011;8447;52.630;4.734;2024-03-22T13:26:54;6.50;;;2.23;;
16667;SDS011;8447;52.630;4.734;2024-03-22T13:29:19;4.63;;;1.50;;
16667;SDS011;8447;52.630;4.734;2024-03-22T13:31:47;8.03;;;1.77;;
16667;SDS011;8447;52.630;4.734;2024-03-22T13:34:12;7.93;;;2.30;;
16667;SDS011;8447;52.630;4.734;2024-03-22T13:36:39;9.47;;;1.93;;
16667;SDS011;8447;52.630;4.734;2024-03-22T13:39:04;7.37;;;1.77;;
16667;SDS011;8447;52.630;4.734;2024-03-22T13:41:30;10.40;;;1.50;;
16667;SDS011;8447;52.630;4.734;2024-03-22T13:43:56;7.50;;;2.13;;
16667;SDS011;8447;52.630;4.734;2024-03-22T13:46:23;6.83;;;1.87;;
16667;SDS011;8447;52.630;4.734;2024-03-22T13:48:50;10.23;;;1.87;;
16667;SDS011;8447;52.630;4.734;2024-03-22T13:51:16;11.40;;;2.20;;
16667;SDS011;8447;52.630;4.734;2024-03-22T13:53:41;10.23;;;2.20;;
16667;SDS011;8447;52.630;4.734;2024-03-22T13:56:08;10.13;;;1.73;;
16667;SDS011;8447;52.630;4.734;2024-03-22T13:58:33;10.80;;;1.63;;
16667;SDS011;8447;52.630;4.734;2024-03-22T14:00:59;11.60;;;2.50;;
16667;SDS011;8447;52.630;4.734;2024-03-22T14:03:25;11.03;;;1.30;;
16667;SDS011;8447;52.630;4.734;2024-03-22T14:05:53;4.23;;;1.23;;
16667;SDS011;8447;52.630;4.734;2024-03-22T14:08:18;1.67;;;0.57;;
16667;SDS011;8447;52.630;4.734;2024-03-22T14:10:45;9.27;;;1.57;;
16667;SDS011;8447;52.630;4.734;2024-03-22T14:13:10;6.73;;;1.43;;
16667;SDS011;8447;52.630;4.734;2024-03-22T14:15:37;6.80;;;1.43;;
16667;SDS011;8447;52.630;4.734;2024-03-22T14:18:03;9.60;;;1.50;;
16667;SDS011;8447;52.630;4.734;2024-03-22T14:20:30;11.63;;;2.20;;
16667;SDS011;8447;52.630;4.734;2024-03-22T14:22:57;9.67;;;3.03;;
16667;SDS011;8447;52.630;4.734;2024-03-22T14:25:23;11.80;;;2.30;;
16667;SDS011;8447;52.630;4.734;2024-03-22T14:27:49;7.47;;;1.73;;
16667;SDS011;8447;52.630;4.734;2024-03-22T14:30:15;9.57;;;2.17;;
16667;SDS011;8447;52.630;4.734;2024-03-22T14:32:41;4.47;;;1.13;;
16667;SDS011;8447;52.630;4.734;2024-03-22T14:35:13;11.60;;;2.00;;
16667;SDS011;8447;52.630;4.734;2024-03-22T14:37:38;9.33;;;1.63;;
16667;SDS011;8447;52.630;4.734;2024-03-22T14:40:07;10.93;;;2.07;;
16667;SDS011;8447;52.630;4.734;2024-03-22T14:42:35;5.17;;;1.47;;
16667;SDS011;8447;52.630;4.734;2024-03-22T14:45:01;10.27;;;2.13;;
16667;SDS011;8447;52.630;4.734;2024-03-22T14:47:27;10.97;;;2.23;;